createdAt,value
2022-10-27T00:00:40.984Z,6.07
2022-10-27T00:03:13.686Z,4.80
2022-10-27T00:05:42.315Z,5.07
2022-10-27T00:08:08.812Z,8.43
2022-10-27T00:10:35.340Z,7.17
2022-10-27T00:13:01.898Z,6.13
2022-10-27T00:15:28.391Z,4.27
2022-10-27T00:17:54.984Z,4.23
2022-10-27T00:20:21.452Z,3.53
2022-10-27T00:22:48.078Z,9.00
2022-10-27T00:25:14.991Z,5.93
2022-10-27T00:27:41.514Z,4.47
2022-10-27T00:30:08.526Z,6.50
2022-10-27T00:32:35.015Z,5.10
2022-10-27T00:35:01.743Z,3.97
2022-10-27T00:37:29.092Z,7.23
2022-10-27T00:39:55.560Z,5.33
2022-10-27T00:42:22.011Z,5.37
2022-10-27T00:44:48.645Z,7.40
2022-10-27T00:47:19.840Z,3.90
2022-10-27T00:50:02.789Z,4.17
2022-10-27T00:52:42.915Z,5.87
2022-10-27T00:55:14.704Z,3.27
2022-10-27T00:57:44.282Z,7.13
2022-10-27T01:00:11.258Z,4.60
2022-10-27T01:02:37.916Z,2.83
2022-10-27T01:05:08.534Z,7.70
2022-10-27T01:07:35.555Z,9.43
2022-10-27T01:10:02.102Z,3.23
2022-10-27T01:12:28.647Z,2.90
2022-10-27T01:14:55.245Z,5.07
2022-10-27T01:17:36.992Z,6.00
2022-10-27T01:20:31.598Z,4.20
2022-10-27T01:23:17.046Z,7.20
2022-10-27T01:25:55.742Z,5.50
2022-10-27T01:28:50.094Z,3.03
2022-10-27T01:31:36.931Z,5.70
2022-10-27T01:34:12.479Z,2.67
2022-10-27T01:36:47.342Z,7.13
2022-10-27T01:39:36.837Z,6.00
2022-10-27T01:42:14.306Z,4.73
2022-10-27T01:44:44.787Z,4.70
2022-10-27T01:47:12.699Z,10.17
2022-10-27T01:49:40.472Z,6.03
2022-10-27T01:52:08.633Z,5.20
2022-10-27T01:54:39.820Z,3.53
2022-10-27T01:57:26.708Z,4.23
2022-10-27T02:00:11.369Z,7.27
2022-10-27T02:02:47.531Z,6.90
2022-10-27T02:05:51.433Z,7.80
2022-10-27T02:08:24.629Z,8.27
2022-10-27T02:11:00.401Z,5.17
2022-10-27T02:13:27.488Z,5.83
2022-10-27T02:15:56.193Z,5.53
2022-10-27T02:18:29.837Z,8.03
2022-10-27T02:21:01.149Z,5.97
2022-10-27T02:23:28.210Z,6.07
2022-10-27T02:26:52.189Z,4.33
2022-10-27T02:29:24.067Z,4.37
2022-10-27T02:31:52.437Z,5.50
2022-10-27T02:34:19.900Z,6.50
2022-10-27T02:36:47.459Z,7.10
2022-10-27T02:39:14.051Z,6.07
2022-10-27T02:41:40.551Z,8.20
2022-10-27T02:44:07.026Z,4.47
2022-10-27T02:46:34.675Z,4.80
2022-10-27T02:49:01.138Z,6.70
2022-10-27T02:51:27.693Z,3.93
2022-10-27T02:53:54.268Z,5.83
2022-10-27T02:56:20.729Z,5.37
2022-10-27T02:58:47.273Z,5.73
2022-10-27T03:01:13.863Z,4.70
2022-10-27T03:03:40.384Z,6.00
2022-10-27T03:06:07.033Z,4.80
2022-10-27T03:08:33.525Z,8.90
2022-10-27T03:11:00.039Z,4.63
2022-10-27T03:13:26.622Z,7.03
2022-10-27T03:15:53.418Z,2.70
2022-10-27T03:18:19.975Z,9.27
2022-10-27T03:20:46.886Z,3.80
2022-10-27T03:23:13.902Z,3.10
2022-10-27T03:25:47.737Z,4.97
2022-10-27T03:28:15.166Z,6.93
2022-10-27T03:30:41.673Z,7.23
2022-10-27T03:33:08.239Z,4.20
2022-10-27T03:35:34.877Z,6.57
2022-10-27T03:38:02.585Z,6.17
2022-10-27T03:40:29.480Z,2.70
2022-10-27T03:42:58.912Z,3.83
2022-10-27T03:45:26.813Z,6.67
2022-10-27T03:48:04.145Z,9.53
2022-10-27T03:50:31.001Z,6.27
2022-10-27T03:52:57.810Z,4.53
2022-10-27T03:55:24.600Z,6.03
2022-10-27T03:57:51.178Z,4.40
2022-10-27T04:00:19.339Z,2.90
2022-10-27T04:02:45.983Z,3.33
2022-10-27T04:05:12.643Z,2.73
2022-10-27T04:07:41.372Z,7.67
2022-10-27T04:10:11.258Z,2.80
2022-10-27T04:12:37.785Z,4.87
2022-10-27T04:15:05.439Z,4.43
2022-10-27T04:17:32.020Z,6.20
2022-10-27T04:19:58.734Z,4.03
2022-10-27T04:22:25.282Z,4.87
2022-10-27T04:24:51.816Z,9.47
2022-10-27T04:27:18.427Z,5.30
2022-10-27T04:29:45.113Z,4.07
2022-10-27T04:32:11.591Z,8.23
2022-10-27T04:34:38.128Z,7.13
2022-10-27T04:37:04.678Z,3.83
2022-10-27T04:39:31.487Z,4.20
2022-10-27T04:41:57.954Z,9.60
2022-10-27T04:44:24.527Z,4.10
2022-10-27T04:46:50.984Z,9.70
2022-10-27T04:49:17.572Z,4.27
2022-10-27T04:51:44.149Z,6.53
2022-10-27T04:54:10.762Z,6.03
2022-10-27T04:56:37.273Z,10.37
2022-10-27T04:59:03.842Z,7.97
2022-10-27T05:01:30.612Z,6.83
2022-10-27T05:03:57.235Z,5.77
2022-10-27T05:06:23.819Z,8.73
2022-10-27T05:08:50.385Z,13.10
2022-10-27T05:11:17.008Z,14.93
2022-10-27T05:13:43.770Z,15.53
2022-10-27T05:16:10.347Z,16.60
2022-10-27T05:18:36.775Z,14.37
2022-10-27T05:21:03.282Z,10.37
2022-10-27T05:23:29.933Z,29.37
2022-10-27T05:25:56.722Z,21.17
2022-10-27T05:28:23.467Z,10.43
2022-10-27T05:30:49.947Z,13.10
2022-10-27T05:33:16.612Z,8.07
2022-10-27T05:35:45.371Z,13.13
2022-10-27T05:38:12.275Z,12.70
2022-10-27T05:40:38.906Z,13.60
2022-10-27T05:43:05.450Z,18.80
2022-10-27T05:45:32.004Z,41.93
2022-10-27T05:47:59.838Z,33.70
2022-10-27T05:50:27.670Z,17.00
2022-10-27T05:52:54.713Z,12.63
2022-10-27T05:55:21.729Z,12.40
2022-10-27T05:57:59.538Z,13.83
2022-10-27T06:00:30.547Z,18.45
2022-10-27T06:02:58.710Z,12.77
2022-10-27T06:05:26.427Z,11.87
2022-10-27T06:07:53.455Z,14.13
2022-10-27T06:10:20.209Z,17.83
2022-10-27T06:12:46.834Z,12.17
2022-10-27T06:15:13.723Z,13.93
2022-10-27T06:17:40.203Z,20.13
2022-10-27T06:20:07.092Z,13.60
2022-10-27T06:22:33.725Z,13.93
2022-10-27T06:25:00.368Z,11.67
2022-10-27T06:27:26.883Z,14.73
2022-10-27T06:29:53.556Z,14.63
2022-10-27T06:32:20.044Z,13.77
2022-10-27T06:34:46.608Z,14.40
2022-10-27T06:37:13.089Z,12.43
2022-10-27T06:39:41.494Z,16.27
2022-10-27T06:42:08.147Z,13.53
2022-10-27T06:44:34.604Z,15.53
2022-10-27T06:47:01.252Z,13.13
2022-10-27T06:49:27.704Z,15.30
2022-10-27T06:51:55.368Z,16.33
2022-10-27T06:54:21.937Z,15.50
2022-10-27T06:56:48.963Z,15.17
2022-10-27T06:59:15.444Z,14.63
2022-10-27T07:01:42.013Z,17.53
2022-10-27T07:04:08.677Z,15.87
2022-10-27T07:06:35.129Z,12.90
2022-10-27T07:09:04.586Z,12.07
2022-10-27T07:11:33.751Z,14.47
2022-10-27T07:14:00.392Z,14.17
2022-10-27T07:16:29.221Z,12.43
2022-10-27T07:18:57.908Z,14.10
2022-10-27T07:21:25.079Z,11.17
2022-10-27T07:23:51.624Z,14.17
2022-10-27T07:26:18.093Z,11.43
2022-10-27T07:28:44.561Z,13.07
2022-10-27T07:31:11.138Z,11.10
2022-10-27T07:33:37.581Z,14.93
2022-10-27T07:36:04.385Z,12.40
2022-10-27T07:38:31.084Z,18.83
2022-10-27T07:40:57.633Z,19.90
2022-10-27T07:43:24.301Z,13.63
2022-10-27T07:45:50.766Z,15.07
2022-10-27T07:48:17.857Z,15.43
2022-10-27T07:50:45.103Z,12.97
2022-10-27T07:53:12.010Z,18.50
2022-10-27T07:55:38.629Z,10.60
2022-10-27T07:58:06.661Z,14.77
2022-10-27T08:00:35.372Z,11.47
2022-10-27T08:03:02.900Z,13.37
2022-10-27T08:05:30.590Z,16.43
2022-10-27T08:07:58.932Z,11.13
2022-10-27T08:10:25.784Z,10.63
2022-10-27T08:12:52.465Z,10.20
2022-10-27T08:15:19.409Z,11.60
2022-10-27T08:17:51.712Z,15.07
2022-10-27T08:20:19.048Z,15.13
2022-10-27T08:22:45.649Z,13.47
2022-10-27T08:25:12.164Z,7.60
2022-10-27T08:27:38.642Z,11.97
2022-10-27T08:30:05.514Z,8.17
2022-10-27T08:35:03.561Z,7.23
2022-10-27T08:37:30.121Z,7.10
2022-10-27T08:39:56.651Z,5.80
2022-10-27T08:42:42.147Z,5.63
2022-10-27T08:45:14.204Z,7.60
2022-10-27T08:47:41.283Z,6.80
2022-10-27T08:50:17.403Z,7.07
2022-10-27T08:52:53.266Z,5.53
2022-10-27T08:55:27.497Z,7.13
2022-10-27T08:57:54.365Z,5.27
2022-10-27T09:00:21.337Z,10.43
2022-10-27T09:03:07.151Z,8.73
2022-10-27T09:05:49.313Z,3.63
2022-10-27T09:08:15.830Z,2.77
2022-10-27T09:10:46.424Z,4.80
2022-10-27T09:13:22.236Z,5.57
2022-10-27T09:15:49.990Z,5.07
2022-10-27T09:18:19.591Z,6.90
2022-10-27T09:20:55.022Z,3.80
2022-10-27T09:23:28.625Z,2.83
2022-10-27T09:25:58.518Z,4.93
2022-10-27T09:28:35.939Z,5.40
2022-10-27T09:31:04.233Z,4.43
2022-10-27T09:33:34.120Z,4.33
2022-10-27T09:36:08.676Z,3.43
2022-10-27T09:38:35.461Z,6.60
2022-10-27T09:41:01.938Z,1.83
2022-10-27T09:43:28.507Z,2.33
2022-10-27T09:46:02.443Z,11.13
2022-10-27T09:48:29.113Z,3.77
2022-10-27T09:51:20.335Z,5.83
2022-10-27T09:53:50.454Z,6.03
2022-10-27T09:56:30.586Z,6.43
2022-10-27T09:59:03.907Z,8.50
2022-10-27T10:01:55.306Z,6.50
2022-10-27T10:04:43.991Z,5.50
2022-10-27T10:07:28.984Z,2.90
2022-10-27T10:10:30.201Z,5.70
2022-10-27T10:13:06.965Z,3.63
2022-10-27T10:15:38.197Z,3.40
2022-10-27T10:18:04.952Z,3.07
2022-10-27T10:23:22.923Z,4.37
2022-10-27T10:25:50.980Z,2.80
2022-10-27T10:28:38.921Z,8.00
2022-10-27T10:31:10.882Z,4.93
2022-10-27T10:33:40.190Z,7.53
2022-10-27T10:36:21.453Z,5.50
2022-10-27T10:38:56.554Z,3.83
2022-10-27T10:41:24.393Z,5.03
2022-10-27T10:44:13.900Z,5.57
2022-10-27T10:46:50.707Z,7.10
2022-10-27T10:49:22.632Z,4.67
2022-10-27T10:51:53.930Z,6.87
2022-10-27T10:54:46.781Z,4.93
2022-10-27T10:57:42.208Z,4.97
2022-10-27T11:00:15.681Z,6.03
2022-10-27T11:02:42.864Z,4.37
2022-10-27T11:05:21.676Z,6.30
2022-10-27T11:07:49.073Z,5.43
2022-10-27T11:10:18.358Z,4.00
2022-10-27T11:12:51.093Z,10.03
2022-10-27T11:15:24.842Z,3.17
2022-10-27T11:17:53.744Z,5.77
2022-10-27T11:20:34.373Z,7.90
2022-10-27T11:23:04.242Z,6.50
2022-10-27T11:25:32.625Z,7.77
2022-10-27T11:28:06.048Z,4.00
2022-10-27T11:30:35.339Z,6.63
2022-10-27T11:33:14.313Z,4.80
2022-10-27T11:36:07.939Z,8.07
2022-10-27T11:39:03.802Z,8.57
2022-10-27T11:41:53.484Z,10.30
2022-10-27T11:44:42.410Z,10.00
2022-10-27T11:47:18.663Z,5.43
2022-10-27T11:49:53.377Z,7.73
2022-10-27T11:52:26.901Z,5.77
2022-10-27T11:54:53.872Z,5.87
2022-10-27T11:57:41.722Z,15.43
2022-10-27T12:00:34.189Z,9.83
2022-10-27T12:03:06.463Z,6.53
2022-10-27T12:05:42.469Z,7.00
2022-10-27T12:08:18.174Z,7.07
2022-10-27T12:11:25.927Z,16.20
2022-10-27T12:14:19.912Z,7.10
2022-10-27T12:17:01.212Z,5.17
2022-10-27T12:19:29.899Z,8.17
2022-10-27T12:22:06.791Z,7.50
2022-10-27T12:24:44.129Z,7.50
2022-10-27T12:27:25.461Z,4.63
2022-10-27T12:29:56.143Z,3.63
2022-10-27T12:32:33.552Z,5.17
2022-10-27T12:35:04.293Z,3.17
2022-10-27T12:38:01.983Z,8.07
2022-10-27T12:40:34.422Z,10.50
2022-10-27T12:43:20.705Z,5.93
2022-10-27T12:46:08.392Z,4.63
2022-10-27T12:48:57.708Z,5.03
2022-10-27T12:51:33.381Z,8.67
2022-10-27T12:54:03.024Z,7.37
2022-10-27T12:56:39.003Z,7.70
2022-10-27T12:59:18.089Z,4.37
2022-10-27T13:01:44.963Z,4.73
2022-10-27T13:04:30.327Z,3.43
2022-10-27T13:07:27.121Z,14.70
2022-10-27T13:10:26.234Z,10.43
2022-10-27T13:13:18.806Z,6.40
2022-10-27T13:15:57.510Z,4.10
2022-10-27T13:18:38.978Z,3.33
2022-10-27T13:21:11.529Z,8.90
2022-10-27T13:24:02.254Z,6.43
2022-10-27T13:26:37.989Z,6.40
2022-10-27T13:29:18.518Z,6.53
2022-10-27T13:31:45.030Z,5.63
2022-10-27T13:34:11.989Z,11.53
2022-10-27T13:36:39.223Z,2.73
2022-10-27T13:39:15.008Z,4.73
2022-10-27T13:42:00.712Z,3.03
2022-10-27T13:44:31.850Z,5.13
2022-10-27T13:47:04.240Z,4.27
2022-10-27T13:49:43.247Z,6.83
2022-10-27T13:52:15.923Z,11.50
2022-10-27T13:54:49.201Z,4.07
2022-10-27T13:57:55.420Z,7.20
2022-10-27T14:00:26.357Z,6.80
2022-10-27T14:03:11.381Z,6.60
2022-10-27T14:08:39.949Z,13.87
2022-10-27T14:11:13.070Z,5.57
2022-10-27T14:13:45.458Z,7.40
2022-10-27T14:16:24.796Z,6.70
2022-10-27T14:19:04.240Z,6.67
2022-10-27T14:21:34.370Z,9.30
2022-10-27T14:24:03.610Z,8.57
2022-10-27T14:26:34.049Z,12.53
2022-10-27T14:29:01.267Z,7.13
2022-10-27T14:31:27.911Z,12.10
2022-10-27T14:33:54.650Z,8.50
2022-10-27T14:36:25.099Z,4.50
2022-10-27T14:39:08.608Z,8.37
2022-10-27T14:41:37.055Z,4.97
2022-10-27T14:44:06.705Z,8.93
2022-10-27T14:46:39.691Z,5.80
2022-10-27T14:49:08.443Z,7.00
2022-10-27T14:51:37.596Z,8.77
2022-10-27T14:56:36.706Z,11.30
2022-10-27T14:59:06.993Z,6.87
2022-10-27T15:01:36.252Z,4.23
2022-10-27T15:04:22.406Z,8.37
2022-10-27T15:06:50.422Z,7.00
2022-10-27T15:09:37.102Z,6.23
2022-10-27T15:12:26.547Z,10.87
2022-10-27T15:14:54.585Z,31.70
2022-10-27T15:17:28.418Z,13.90
2022-10-27T15:20:00.255Z,5.43
2022-10-27T15:22:27.543Z,6.67
2022-10-27T15:24:55.431Z,9.40
2022-10-27T15:27:22.097Z,10.53
2022-10-27T15:29:50.662Z,6.73
2022-10-27T15:32:32.675Z,11.13
2022-10-27T15:34:59.310Z,5.20
2022-10-27T15:37:26.467Z,11.40
2022-10-27T15:39:54.092Z,10.70
2022-10-27T15:42:27.542Z,21.57
2022-10-27T15:45:21.593Z,10.00
2022-10-27T15:47:49.355Z,8.47
2022-10-27T15:50:35.663Z,10.20
2022-10-27T15:53:16.597Z,8.00
2022-10-27T15:55:46.765Z,10.70
2022-10-27T15:58:33.814Z,9.37
2022-10-27T16:01:02.242Z,9.63
2022-10-27T16:03:34.310Z,9.23
2022-10-27T16:06:20.406Z,8.97
2022-10-27T16:08:47.143Z,9.87
2022-10-27T16:11:14.817Z,8.50
2022-10-27T16:13:46.958Z,11.87
2022-10-27T16:16:13.715Z,10.63
2022-10-27T16:18:41.460Z,7.07
2022-10-27T16:21:16.520Z,10.47
2022-10-27T16:23:44.989Z,8.37
2022-10-27T16:26:14.363Z,7.90
2022-10-27T16:28:42.071Z,10.03
2022-10-27T16:31:15.963Z,12.67
2022-10-27T16:33:42.787Z,9.30
2022-10-27T16:36:12.289Z,11.67
2022-10-27T16:38:39.054Z,9.77
2022-10-27T16:41:06.097Z,10.17
2022-10-27T16:43:36.565Z,11.87
2022-10-27T16:46:04.254Z,13.20
2022-10-27T16:48:32.939Z,12.93
2022-10-27T16:51:04.042Z,9.50
2022-10-27T16:53:30.635Z,9.83
2022-10-27T16:56:02.812Z,14.07
2022-10-27T16:58:32.839Z,7.30
2022-10-27T17:01:04.460Z,12.67
2022-10-27T17:03:31.150Z,13.87
2022-10-27T17:05:59.105Z,12.30
2022-10-27T17:08:25.790Z,10.10
2022-10-27T17:10:52.488Z,13.03
2022-10-27T17:13:19.241Z,12.30
2022-10-27T17:15:45.968Z,11.30
2022-10-27T17:18:13.620Z,9.63
2022-10-27T17:20:41.412Z,12.23
2022-10-27T17:23:08.153Z,7.37
2022-10-27T17:25:34.801Z,12.77
2022-10-27T17:28:01.515Z,7.43
2022-10-27T17:30:28.226Z,11.50
2022-10-27T17:32:54.799Z,12.87
2022-10-27T17:35:21.499Z,8.27
2022-10-27T17:37:48.171Z,12.07
2022-10-27T17:40:14.936Z,12.70
2022-10-27T17:42:41.651Z,10.87
2022-10-27T17:45:08.702Z,10.80
2022-10-27T17:47:35.654Z,10.10
2022-10-27T17:50:04.854Z,15.80
2022-10-27T17:52:34.838Z,12.57
2022-10-27T17:55:01.463Z,15.30
2022-10-27T17:57:28.859Z,14.07
2022-10-27T17:59:57.654Z,9.20
2022-10-27T18:02:25.118Z,12.83
2022-10-27T18:04:52.458Z,13.90
2022-10-27T18:07:19.197Z,11.57
2022-10-27T18:09:45.921Z,11.77
2022-10-27T18:12:12.566Z,16.93
2022-10-27T18:14:39.307Z,13.80
2022-10-27T18:17:07.790Z,9.20
2022-10-27T18:19:35.394Z,8.90
2022-10-27T18:22:02.214Z,8.33
2022-10-27T18:24:28.844Z,17.13
2022-10-27T18:26:55.392Z,7.43
2022-10-27T18:29:25.423Z,8.20
2022-10-27T18:31:53.155Z,7.63
2022-10-27T18:34:19.785Z,11.50
2022-10-27T18:36:46.480Z,11.90
2022-10-27T18:39:15.952Z,14.63
2022-10-27T18:41:43.479Z,8.30
2022-10-27T18:44:10.547Z,11.47
2022-10-27T18:46:38.710Z,9.83
2022-10-27T18:49:07.401Z,11.67
2022-10-27T18:51:36.428Z,10.87
2022-10-27T18:54:04.789Z,15.43
2022-10-27T18:56:32.141Z,11.43
2022-10-27T18:59:02.154Z,13.90
2022-10-27T19:01:29.115Z,8.97
2022-10-27T19:03:57.784Z,10.93
2022-10-27T19:06:25.741Z,11.60
2022-10-27T19:08:53.032Z,7.17
2022-10-27T19:11:21.661Z,6.20
2022-10-27T19:13:48.528Z,11.63
2022-10-27T19:16:18.119Z,21.13
2022-10-27T19:18:45.241Z,16.00
2022-10-27T19:21:19.794Z,15.47
2022-10-27T19:23:47.952Z,9.20
2022-10-27T19:26:16.983Z,10.43
2022-10-27T19:28:44.928Z,13.00
2022-10-27T19:31:17.564Z,11.43
2022-10-27T19:33:45.337Z,10.17
2022-10-27T19:36:22.838Z,14.20
2022-10-27T19:38:51.069Z,12.33
2022-10-27T19:41:20.020Z,20.43
2022-10-27T19:43:49.821Z,12.13
2022-10-27T19:46:20.692Z,11.33
2022-10-27T19:48:54.210Z,6.80
2022-10-27T19:51:23.850Z,10.33
2022-10-27T19:53:50.944Z,12.77
2022-10-27T19:56:19.171Z,12.40
2022-10-27T19:58:53.557Z,11.83
2022-10-27T20:01:23.698Z,15.07
2022-10-27T20:03:50.825Z,14.27
2022-10-27T20:06:17.791Z,23.80
2022-10-27T20:08:45.818Z,11.13
2022-10-27T20:11:15.443Z,13.83
2022-10-27T20:13:46.656Z,9.53
2022-10-27T20:16:14.744Z,10.63
2022-10-27T20:18:41.347Z,15.57
2022-10-27T20:21:08.027Z,21.37
2022-10-27T20:23:34.898Z,12.43
2022-10-27T20:26:24.372Z,13.03
2022-10-27T20:28:49.493Z,13.67
2022-10-27T20:31:16.248Z,14.37
2022-10-27T20:33:42.761Z,12.03
2022-10-27T20:36:12.777Z,10.57
2022-10-27T20:38:39.346Z,11.37
2022-10-27T20:41:17.248Z,13.53
2022-10-27T20:43:44.239Z,14.93
2022-10-27T20:46:11.388Z,7.47
2022-10-27T20:48:39.903Z,9.97
2022-10-27T20:51:13.801Z,14.53
2022-10-27T20:53:40.387Z,12.87
2022-10-27T20:56:17.810Z,13.10
2022-10-27T20:58:45.176Z,12.13
2022-10-27T21:01:14.805Z,10.53
2022-10-27T21:03:41.800Z,12.87
2022-10-27T21:06:09.022Z,9.10
2022-10-27T21:08:35.541Z,9.57
2022-10-27T21:11:02.197Z,13.13
2022-10-27T21:13:28.737Z,20.77
2022-10-27T21:15:58.980Z,15.80
2022-10-27T21:18:25.895Z,12.10
2022-10-27T21:20:52.624Z,15.40
2022-10-27T21:23:19.158Z,13.47
2022-10-27T21:25:45.851Z,9.10
2022-10-27T21:28:12.362Z,12.77
2022-10-27T21:30:38.785Z,9.93
2022-10-27T21:33:05.628Z,9.07
2022-10-27T21:35:32.185Z,18.83
2022-10-27T21:38:00.893Z,20.83
2022-10-27T21:40:27.443Z,9.47
2022-10-27T21:42:56.009Z,10.90
2022-10-27T21:45:23.085Z,8.83
2022-10-27T21:47:49.629Z,17.60
2022-10-27T21:50:16.291Z,8.13
2022-10-27T21:52:42.791Z,12.13
2022-10-27T21:55:09.512Z,17.60
2022-10-27T21:57:36.001Z,11.03
2022-10-27T22:00:02.553Z,13.63
2022-10-27T22:02:29.088Z,12.87
2022-10-27T22:04:55.669Z,11.23
2022-10-27T22:07:22.143Z,16.00
2022-10-27T22:09:48.680Z,11.00
2022-10-27T22:12:15.254Z,13.37
2022-10-27T22:14:41.816Z,15.03
2022-10-27T22:17:08.466Z,16.87
2022-10-27T22:19:37.209Z,15.50
2022-10-27T22:24:35.745Z,10.53
2022-10-27T22:27:02.979Z,12.03
2022-10-27T22:29:29.528Z,11.53
2022-10-27T22:31:56.171Z,18.47
2022-10-27T22:34:22.799Z,20.23
2022-10-27T22:36:49.347Z,16.97
2022-10-27T22:39:16.097Z,9.60
2022-10-27T22:41:42.605Z,9.63
2022-10-27T22:44:09.052Z,18.67
2022-10-27T22:46:36.189Z,13.17
2022-10-27T22:49:03.405Z,15.57
2022-10-27T22:51:34.230Z,13.90
2022-10-27T22:54:00.919Z,15.30
2022-10-27T22:56:29.721Z,15.20
2022-10-27T22:58:58.644Z,12.63
2022-10-27T23:01:33.509Z,15.07
2022-10-27T23:04:02.704Z,11.00
2022-10-27T23:06:31.516Z,14.20
2022-10-27T23:09:00.306Z,8.17
2022-10-27T23:11:30.592Z,7.20
2022-10-27T23:13:57.042Z,11.80
2022-10-27T23:16:23.555Z,16.63
2022-10-27T23:18:50.241Z,14.23
2022-10-27T23:21:17.267Z,13.10
2022-10-27T23:23:44.011Z,10.27
2022-10-27T23:26:19.046Z,10.83
2022-10-27T23:29:06.829Z,14.77
2022-10-27T23:31:34.372Z,16.50
2022-10-27T23:34:02.983Z,12.57
2022-10-27T23:36:32.269Z,12.23
2022-10-27T23:38:59.170Z,11.43
2022-10-27T23:41:26.010Z,10.03
2022-10-27T23:43:57.178Z,13.87
2022-10-27T23:46:24.914Z,14.50
2022-10-27T23:48:52.786Z,12.63
2022-10-27T23:53:51.426Z,11.03
2022-10-27T23:56:18.355Z,17.40
2022-10-27T23:58:45.609Z,15.17
